Terminal Aerodrome Forecast
Issued by NWS Corpus Christi, TX

Home | Current Version | Previous Version | Text Only | Print | Product List | Glossary On
Versions: 1 2 3 4 5 6 7 8 9 10 11 12 13 14 15 16 17 18 19 20
034
FTUS44 KCRP 251120
TAFVCT
TAF
KVCT 251120Z 2512/2612 01010KT P6SM SKC
     FM251500 04014KT P6SM SKC
     FM252000 07008KT P6SM SKC
     FM260900 09005KT 5SM BR BKN026=

USA.gov is the U.S. government's official web portal to all federal, state and local government web resources and services.